N34549 KBOS-KBTV
Flight info
| Callsign | N34549 |
|---|---|
| Flight time | 1h 2m |
| Altitude | 8000 |
| Route | LOGAN4 MANCH CON LBNON |
| Aircraft | BE58/L-SDFGRY/C |
Departure
| Time | 2026-05-05 23:05 |
|---|---|
| Airport | Boston Logan International Airport (KBOS) |
Arrival
| Time | 2026-05-06 00:07 |
|---|---|
| Airport | Patrick Leahy Burlington International Airport (KBTV) |
| Time | Latitude | Longitude | Altitude | Speed | Heading |
|---|---|---|---|---|---|
| 2026-05-05 22:48 | 42.37437 | -71.02131 | 21 ft | 0 kts | 160° |
| 2026-05-05 22:57 | 42.37416 | -71.02109 | 21 ft | 11 kts | 121° |
| 2026-05-05 22:57 | 42.37408 | -71.02090 | 21 ft | 0 kts | 119° |
| 2026-05-05 22:58 | 42.37386 | -71.02004 | 21 ft | 19 kts | 144° |
| 2026-05-05 22:58 | 42.37334 | -71.01928 | 23 ft | 11 kts | 119° |
| 2026-05-05 22:58 | 42.37289 | -71.01813 | 24 ft | 18 kts | 133° |
| 2026-05-05 22:58 | 42.37247 | -71.01751 | 25 ft | 9 kts | 131° |
| 2026-05-05 22:59 | 42.37173 | -71.01657 | 24 ft | 18 kts | 136° |
| 2026-05-05 22:59 | 42.37085 | -71.01541 | 22 ft | 19 kts | 136° |
| 2026-05-05 22:59 | 42.36992 | -71.01413 | 24 ft | 19 kts | 130° |
| 2026-05-05 22:59 | 42.36904 | -71.01271 | 18 ft | 18 kts | 110° |
| 2026-05-05 23:00 | 42.37091 | -71.01043 | 15 ft | 24 kts | 25° |
| 2026-05-05 23:00 | 42.37245 | -71.00942 | 15 ft | 26 kts | 26° |
| 2026-05-05 23:00 | 42.37426 | -71.00845 | 15 ft | 29 kts | 20° |
| 2026-05-05 23:01 | 42.37595 | -71.00762 | 18 ft | 27 kts | 19° |
| 2026-05-05 23:01 | 42.37771 | -71.00677 | 22 ft | 27 kts | 19° |
| 2026-05-05 23:01 | 42.37838 | -71.00583 | 21 ft | 0 kts | 103° |
| 2026-05-05 23:03 | 42.37838 | -71.00579 | 21 ft | 3 kts | 103° |
| 2026-05-05 23:03 | 42.37799 | -71.00486 | 19 ft | 20 kts | 157° |
| 2026-05-05 23:04 | 42.37713 | -71.00509 | 19 ft | 8 kts | 200° |
| 2026-05-05 23:04 | 42.37596 | -71.00565 | 19 ft | 58 kts | 199° |
| 2026-05-05 23:04 | 42.37037 | -71.00831 | 202 ft | 99 kts | 199° |
| 2026-05-05 23:04 | 42.36469 | -71.01402 | 605 ft | 115 kts | 232° |
| 2026-05-05 23:05 | 42.36402 | -71.02586 | 891 ft | 140 kts | 274° |
| 2026-05-05 23:05 | 42.36570 | -71.03869 | 1370 ft | 137 kts | 275° |
| 2026-05-05 23:05 | 42.36774 | -71.05096 | 1755 ft | 136 kts | 274° |
| 2026-05-05 23:05 | 42.36964 | -71.06324 | 2015 ft | 131 kts | 274° |
| 2026-05-05 23:06 | 42.37147 | -71.07516 | 2266 ft | 128 kts | 274° |
| 2026-05-05 23:06 | 42.37325 | -71.08690 | 2488 ft | 127 kts | 274° |
| 2026-05-05 23:06 | 42.37804 | -71.09731 | 2688 ft | 146 kts | 319° |
| 2026-05-05 23:06 | 42.38768 | -71.10302 | 2893 ft | 158 kts | 329° |
| 2026-05-05 23:07 | 42.39822 | -71.10810 | 3109 ft | 163 kts | 332° |
| 2026-05-05 23:07 | 42.40909 | -71.11302 | 3329 ft | 166 kts | 333° |
| 2026-05-05 23:07 | 42.42008 | -71.11792 | 3559 ft | 166 kts | 332° |
| 2026-05-05 23:07 | 42.43097 | -71.12318 | 3807 ft | 165 kts | 330° |
| 2026-05-05 23:08 | 42.44155 | -71.12895 | 4049 ft | 163 kts | 327° |
| 2026-05-05 23:08 | 42.45197 | -71.13502 | 4301 ft | 163 kts | 327° |
| 2026-05-05 23:08 | 42.46242 | -71.14120 | 4496 ft | 167 kts | 328° |
| 2026-05-05 23:08 | 42.47331 | -71.14734 | 4620 ft | 172 kts | 329° |
| 2026-05-05 23:09 | 42.48450 | -71.15324 | 4746 ft | 174 kts | 330° |
| 2026-05-05 23:09 | 42.49579 | -71.15920 | 4866 ft | 174 kts | 329° |
| 2026-05-05 23:09 | 42.50701 | -71.16538 | 4990 ft | 174 kts | 328° |
| 2026-05-05 23:09 | 42.51799 | -71.17171 | 5105 ft | 174 kts | 328° |
| 2026-05-05 23:10 | 42.52916 | -71.17805 | 5249 ft | 171 kts | 329° |
| 2026-05-05 23:10 | 42.54003 | -71.18406 | 5501 ft | 167 kts | 329° |
| 2026-05-05 23:10 | 42.55072 | -71.18993 | 5766 ft | 165 kts | 328° |
| 2026-05-05 23:10 | 42.56133 | -71.19576 | 6016 ft | 164 kts | 328° |
| 2026-05-05 23:11 | 42.57183 | -71.20162 | 6264 ft | 162 kts | 328° |
| 2026-05-05 23:11 | 42.58221 | -71.20753 | 6508 ft | 161 kts | 327° |
| 2026-05-05 23:11 | 42.59254 | -71.21333 | 6750 ft | 161 kts | 329° |
| 2026-05-05 23:11 | 42.60293 | -71.21901 | 7004 ft | 161 kts | 329° |
| 2026-05-05 23:12 | 42.61334 | -71.22469 | 7257 ft | 161 kts | 329° |
| 2026-05-05 23:12 | 42.62375 | -71.23048 | 7503 ft | 161 kts | 329° |
| 2026-05-05 23:12 | 42.63408 | -71.23634 | 7755 ft | 161 kts | 329° |
| 2026-05-05 23:12 | 42.64444 | -71.24220 | 7979 ft | 163 kts | 329° |
| 2026-05-05 23:13 | 42.65528 | -71.24833 | 7997 ft | 174 kts | 330° |
| 2026-05-05 23:13 | 42.66662 | -71.25460 | 7997 ft | 181 kts | 330° |
| 2026-05-05 23:13 | 42.67844 | -71.26102 | 7997 ft | 184 kts | 330° |
| 2026-05-05 23:13 | 42.69037 | -71.26764 | 7998 ft | 186 kts | 330° |
| 2026-05-05 23:14 | 42.70234 | -71.27439 | 8001 ft | 186 kts | 330° |
| 2026-05-05 23:14 | 42.71432 | -71.28121 | 7993 ft | 187 kts | 330° |
| 2026-05-05 23:14 | 42.72633 | -71.28796 | 7998 ft | 187 kts | 330° |
| 2026-05-05 23:14 | 42.73840 | -71.29469 | 7993 ft | 188 kts | 330° |
| 2026-05-05 23:15 | 42.75052 | -71.30142 | 7996 ft | 189 kts | 330° |
| 2026-05-05 23:15 | 42.76268 | -71.30820 | 7990 ft | 188 kts | 330° |
| 2026-05-05 23:15 | 42.77475 | -71.31497 | 7967 ft | 188 kts | 330° |
| 2026-05-05 23:15 | 42.78678 | -71.32170 | 7961 ft | 186 kts | 329° |
| 2026-05-05 23:16 | 42.79870 | -71.32849 | 7965 ft | 186 kts | 329° |
| 2026-05-05 23:16 | 42.81071 | -71.33526 | 7962 ft | 187 kts | 330° |
| 2026-05-05 23:16 | 42.82281 | -71.34200 | 7946 ft | 188 kts | 330° |
| 2026-05-05 23:16 | 42.83500 | -71.34874 | 7942 ft | 189 kts | 329° |
| 2026-05-05 23:17 | 42.84696 | -71.35546 | 7943 ft | 188 kts | 329° |
| 2026-05-05 23:17 | 42.85902 | -71.36230 | 7943 ft | 188 kts | 329° |
| 2026-05-05 23:17 | 42.87108 | -71.36915 | 7941 ft | 188 kts | 330° |
| 2026-05-05 23:17 | 42.88315 | -71.37597 | 7944 ft | 188 kts | 328° |
| 2026-05-05 23:18 | 42.89511 | -71.38326 | 7946 ft | 189 kts | 328° |
| 2026-05-05 23:18 | 42.90715 | -71.39057 | 7942 ft | 190 kts | 328° |
| 2026-05-05 23:18 | 42.91929 | -71.39771 | 7940 ft | 190 kts | 329° |
| 2026-05-05 23:18 | 42.93145 | -71.40468 | 7938 ft | 189 kts | 329° |
| 2026-05-05 23:19 | 42.94351 | -71.41163 | 7940 ft | 189 kts | 329° |
| 2026-05-05 23:19 | 42.95565 | -71.41878 | 7940 ft | 189 kts | 328° |
| 2026-05-05 23:19 | 42.96768 | -71.42598 | 7939 ft | 189 kts | 328° |
| 2026-05-05 23:19 | 42.97973 | -71.43321 | 7940 ft | 189 kts | 328° |
| 2026-05-05 23:20 | 42.99176 | -71.44033 | 7941 ft | 190 kts | 328° |
| 2026-05-05 23:20 | 43.00340 | -71.44714 | 7940 ft | 189 kts | 329° |
| 2026-05-05 23:20 | 43.00674 | -71.44909 | 7938 ft | 189 kts | 329° |
| 2026-05-05 23:21 | 43.01886 | -71.45617 | 7940 ft | 190 kts | 328° |
| 2026-05-05 23:21 | 43.03097 | -71.46336 | 7937 ft | 190 kts | 328° |
| 2026-05-05 23:21 | 43.04306 | -71.47056 | 7935 ft | 189 kts | 328° |
| 2026-05-05 23:21 | 43.05511 | -71.47773 | 7934 ft | 189 kts | 328° |
| 2026-05-05 23:22 | 43.06723 | -71.48491 | 7932 ft | 189 kts | 328° |
| 2026-05-05 23:22 | 43.07934 | -71.49201 | 7929 ft | 189 kts | 328° |
| 2026-05-05 23:22 | 43.09134 | -71.49909 | 7932 ft | 188 kts | 328° |
| 2026-05-05 23:22 | 43.10318 | -71.50617 | 7933 ft | 188 kts | 328° |
| 2026-05-05 23:23 | 43.11524 | -71.51340 | 7935 ft | 190 kts | 328° |
| 2026-05-05 23:23 | 43.12742 | -71.52061 | 7932 ft | 191 kts | 329° |
| 2026-05-05 23:23 | 43.13964 | -71.52779 | 7934 ft | 191 kts | 329° |
| 2026-05-05 23:23 | 43.15182 | -71.53491 | 7932 ft | 190 kts | 328° |
| 2026-05-05 23:24 | 43.16391 | -71.54215 | 7934 ft | 189 kts | 328° |
| 2026-05-05 23:24 | 43.17204 | -71.54708 | 7934 ft | 189 kts | 328° |
| 2026-05-05 23:24 | 43.18416 | -71.55434 | 7934 ft | 190 kts | 328° |
| 2026-05-05 23:24 | 43.19615 | -71.56141 | 7934 ft | 190 kts | 328° |
| 2026-05-05 23:25 | 43.21240 | -71.57101 | 7931 ft | 189 kts | 328° |
| 2026-05-05 23:25 | 43.22040 | -71.57576 | 7931 ft | 189 kts | 328° |
| 2026-05-05 23:25 | 43.23034 | -71.58515 | 7932 ft | 178 kts | 306° |
| 2026-05-05 23:25 | 43.23866 | -71.59774 | 7927 ft | 177 kts | 304° |
| 2026-05-05 23:26 | 43.24672 | -71.61057 | 7933 ft | 178 kts | 303° |
| 2026-05-05 23:26 | 43.25482 | -71.62342 | 7931 ft | 178 kts | 304° |
| 2026-05-05 23:26 | 43.26333 | -71.63593 | 7932 ft | 179 kts | 306° |
| 2026-05-05 23:26 | 43.27214 | -71.64813 | 7935 ft | 181 kts | 307° |
| 2026-05-05 23:27 | 43.28115 | -71.66024 | 7930 ft | 181 kts | 308° |
| 2026-05-05 23:27 | 43.29008 | -71.67227 | 7934 ft | 179 kts | 307° |
| 2026-05-05 23:27 | 43.29872 | -71.68430 | 7924 ft | 179 kts | 306° |
| 2026-05-05 23:27 | 43.30741 | -71.69658 | 7925 ft | 179 kts | 306° |
| 2026-05-05 23:28 | 43.31611 | -71.70877 | 7922 ft | 178 kts | 306° |
| 2026-05-05 23:28 | 43.32485 | -71.72088 | 7930 ft | 179 kts | 307° |
| 2026-05-05 23:28 | 43.33364 | -71.73301 | 7929 ft | 180 kts | 307° |
| 2026-05-05 23:28 | 43.34251 | -71.74523 | 7924 ft | 180 kts | 307° |
| 2026-05-05 23:29 | 43.35137 | -71.75744 | 7925 ft | 180 kts | 307° |
| 2026-05-05 23:29 | 43.36016 | -71.76965 | 7942 ft | 179 kts | 307° |
| 2026-05-05 23:29 | 43.36881 | -71.78171 | 7978 ft | 178 kts | 306° |
| 2026-05-05 23:29 | 43.37760 | -71.79409 | 7857 ft | 183 kts | 307° |
| 2026-05-05 23:30 | 43.38659 | -71.80666 | 7778 ft | 182 kts | 307° |
| 2026-05-05 23:30 | 43.39537 | -71.81873 | 7768 ft | 179 kts | 307° |
| 2026-05-05 23:30 | 43.40404 | -71.83071 | 7760 ft | 171 kts | 307° |
| 2026-05-05 23:30 | 43.41244 | -71.84223 | 7776 ft | 172 kts | 306° |
| 2026-05-05 23:31 | 43.42077 | -71.85388 | 7915 ft | 169 kts | 306° |
| 2026-05-05 23:31 | 43.42892 | -71.86545 | 8075 ft | 167 kts | 305° |
| 2026-05-05 23:31 | 43.43703 | -71.87694 | 8218 ft | 166 kts | 306° |
| 2026-05-05 23:31 | 43.44512 | -71.88812 | 8368 ft | 165 kts | 306° |
| 2026-05-05 23:32 | 43.45324 | -71.89922 | 8525 ft | 165 kts | 306° |
| 2026-05-05 23:32 | 43.46132 | -71.91049 | 8693 ft | 165 kts | 305° |
| 2026-05-05 23:32 | 43.46936 | -71.92181 | 8837 ft | 165 kts | 305° |
| 2026-05-05 23:32 | 43.47726 | -71.93291 | 8968 ft | 165 kts | 305° |
| 2026-05-05 23:33 | 43.48531 | -71.94416 | 9127 ft | 165 kts | 304° |
| 2026-05-05 23:33 | 43.49336 | -71.95544 | 9292 ft | 165 kts | 304° |
| 2026-05-05 23:33 | 43.50148 | -71.96677 | 9451 ft | 166 kts | 304° |
| 2026-05-05 23:33 | 43.50965 | -71.97808 | 9601 ft | 166 kts | 304° |
| 2026-05-05 23:34 | 43.51781 | -71.98947 | 9752 ft | 167 kts | 304° |
| 2026-05-05 23:34 | 43.52590 | -72.00091 | 9903 ft | 167 kts | 304° |
| 2026-05-05 23:34 | 43.53405 | -72.01238 | 10042 ft | 167 kts | 304° |
| 2026-05-05 23:34 | 43.54219 | -72.02390 | 10201 ft | 168 kts | 304° |
| 2026-05-05 23:35 | 43.55041 | -72.03536 | 10346 ft | 169 kts | 305° |
| 2026-05-05 23:35 | 43.55871 | -72.04686 | 10497 ft | 169 kts | 305° |
| 2026-05-05 23:35 | 43.56689 | -72.05827 | 10653 ft | 170 kts | 305° |
| 2026-05-05 23:35 | 43.57519 | -72.06992 | 10791 ft | 170 kts | 304° |
| 2026-05-05 23:36 | 43.58345 | -72.08156 | 10940 ft | 170 kts | 304° |
| 2026-05-05 23:36 | 43.59171 | -72.09327 | 11089 ft | 170 kts | 304° |
| 2026-05-05 23:36 | 43.59998 | -72.10493 | 11227 ft | 169 kts | 305° |
| 2026-05-05 23:36 | 43.60825 | -72.11654 | 11389 ft | 170 kts | 305° |
| 2026-05-05 23:37 | 43.61657 | -72.12819 | 11553 ft | 171 kts | 305° |
| 2026-05-05 23:37 | 43.62495 | -72.13992 | 11711 ft | 172 kts | 305° |
| 2026-05-05 23:37 | 43.63332 | -72.15170 | 11858 ft | 172 kts | 305° |
| 2026-05-05 23:37 | 43.64168 | -72.16350 | 12012 ft | 172 kts | 305° |
| 2026-05-05 23:38 | 43.65003 | -72.17532 | 12171 ft | 172 kts | 305° |
| 2026-05-05 23:38 | 43.65842 | -72.18717 | 12323 ft | 172 kts | 305° |
| 2026-05-05 23:38 | 43.66683 | -72.19901 | 12484 ft | 173 kts | 305° |
| 2026-05-05 23:38 | 43.67517 | -72.21072 | 12634 ft | 173 kts | 305° |
| 2026-05-05 23:39 | 43.68379 | -72.22268 | 12789 ft | 175 kts | 308° |
| 2026-05-05 23:39 | 43.69348 | -72.23352 | 12704 ft | 189 kts | 313° |
| 2026-05-05 23:39 | 43.70414 | -72.24476 | 12602 ft | 195 kts | 313° |
| 2026-05-05 23:39 | 43.71453 | -72.25642 | 12471 ft | 190 kts | 310° |
| 2026-05-05 23:40 | 43.72442 | -72.26844 | 12345 ft | 188 kts | 309° |
| 2026-05-05 23:40 | 43.73417 | -72.28049 | 12212 ft | 188 kts | 309° |
| 2026-05-05 23:40 | 43.74402 | -72.29220 | 12084 ft | 187 kts | 310° |
| 2026-05-05 23:40 | 43.75403 | -72.30363 | 11959 ft | 187 kts | 311° |
| 2026-05-05 23:41 | 43.76302 | -72.31615 | 11825 ft | 181 kts | 301° |
| 2026-05-05 23:41 | 43.77095 | -72.32962 | 11695 ft | 180 kts | 300° |
| 2026-05-05 23:41 | 43.77893 | -72.34300 | 11592 ft | 180 kts | 301° |
| 2026-05-05 23:41 | 43.78719 | -72.35604 | 11488 ft | 180 kts | 303° |
| 2026-05-05 23:42 | 43.79571 | -72.36886 | 11390 ft | 181 kts | 303° |
| 2026-05-05 23:42 | 43.80418 | -72.38168 | 11281 ft | 180 kts | 303° |
| 2026-05-05 23:42 | 43.81249 | -72.39454 | 11179 ft | 179 kts | 302° |
| 2026-05-05 23:42 | 43.82072 | -72.40745 | 11085 ft | 179 kts | 302° |
| 2026-05-05 23:43 | 43.82895 | -72.42041 | 10988 ft | 179 kts | 302° |
| 2026-05-05 23:43 | 43.83718 | -72.43335 | 10900 ft | 180 kts | 302° |
| 2026-05-05 23:43 | 43.84553 | -72.44623 | 10772 ft | 179 kts | 302° |
| 2026-05-05 23:43 | 43.85372 | -72.45883 | 10656 ft | 177 kts | 302° |
| 2026-05-05 23:44 | 43.86192 | -72.47158 | 10584 ft | 177 kts | 301° |
| 2026-05-05 23:44 | 43.87010 | -72.48437 | 10497 ft | 178 kts | 301° |
| 2026-05-05 23:44 | 43.87854 | -72.49770 | 10408 ft | 190 kts | 302° |
| 2026-05-05 23:44 | 43.88753 | -72.51175 | 10310 ft | 198 kts | 302° |
| 2026-05-05 23:45 | 43.89687 | -72.52613 | 10228 ft | 203 kts | 303° |
| 2026-05-05 23:45 | 43.90635 | -72.54075 | 10134 ft | 205 kts | 303° |
| 2026-05-05 23:45 | 43.91586 | -72.55560 | 10054 ft | 206 kts | 302° |
| 2026-05-05 23:45 | 43.92536 | -72.57055 | 9932 ft | 206 kts | 302° |
| 2026-05-05 23:46 | 43.93485 | -72.58553 | 9844 ft | 207 kts | 302° |
| 2026-05-05 23:46 | 43.94438 | -72.60048 | 9751 ft | 207 kts | 302° |
| 2026-05-05 23:46 | 43.95398 | -72.61539 | 9647 ft | 207 kts | 302° |
| 2026-05-05 23:46 | 43.96354 | -72.63026 | 9538 ft | 206 kts | 302° |
| 2026-05-05 23:47 | 43.97306 | -72.64517 | 9436 ft | 206 kts | 302° |
| 2026-05-05 23:47 | 43.98256 | -72.66014 | 9364 ft | 204 kts | 302° |
| 2026-05-05 23:47 | 43.99200 | -72.67497 | 9244 ft | 205 kts | 302° |
| 2026-05-05 23:47 | 44.00147 | -72.68976 | 9130 ft | 204 kts | 302° |
| 2026-05-05 23:48 | 44.01081 | -72.70408 | 9219 ft | 197 kts | 302° |
| 2026-05-05 23:48 | 44.01968 | -72.71803 | 9304 ft | 194 kts | 300° |
| 2026-05-05 23:48 | 44.02832 | -72.73233 | 9385 ft | 192 kts | 301° |
| 2026-05-05 23:48 | 44.03721 | -72.74641 | 9510 ft | 190 kts | 302° |
| 2026-05-05 23:49 | 44.04615 | -72.76017 | 9524 ft | 193 kts | 302° |
| 2026-05-05 23:49 | 44.05527 | -72.77426 | 9437 ft | 200 kts | 302° |
| 2026-05-05 23:49 | 44.06463 | -72.78888 | 9238 ft | 204 kts | 302° |
| 2026-05-05 23:49 | 44.07391 | -72.80353 | 9085 ft | 205 kts | 302° |
| 2026-05-05 23:50 | 44.08336 | -72.81855 | 8951 ft | 207 kts | 302° |
| 2026-05-05 23:50 | 44.09284 | -72.83358 | 8789 ft | 207 kts | 302° |
| 2026-05-05 23:50 | 44.10233 | -72.84851 | 8631 ft | 206 kts | 302° |
| 2026-05-05 23:50 | 44.11183 | -72.86352 | 8481 ft | 207 kts | 302° |
| 2026-05-05 23:51 | 44.12129 | -72.87842 | 8314 ft | 205 kts | 302° |
| 2026-05-05 23:51 | 44.13069 | -72.89325 | 8126 ft | 203 kts | 302° |
| 2026-05-05 23:51 | 44.13998 | -72.90788 | 7941 ft | 202 kts | 302° |
| 2026-05-05 23:51 | 44.14928 | -72.92264 | 7744 ft | 201 kts | 302° |
| 2026-05-05 23:52 | 44.15845 | -72.93726 | 7548 ft | 202 kts | 302° |
| 2026-05-05 23:52 | 44.16767 | -72.95186 | 7513 ft | 201 kts | 303° |
| 2026-05-05 23:52 | 44.17698 | -72.96654 | 7395 ft | 203 kts | 303° |
| 2026-05-05 23:52 | 44.18633 | -72.98129 | 7254 ft | 203 kts | 303° |
| 2026-05-05 23:53 | 44.19565 | -72.99598 | 7098 ft | 202 kts | 303° |
| 2026-05-05 23:53 | 44.20480 | -73.01055 | 6989 ft | 202 kts | 302° |
| 2026-05-05 23:53 | 44.21406 | -73.02541 | 6874 ft | 203 kts | 302° |
| 2026-05-05 23:53 | 44.22341 | -73.04029 | 6743 ft | 205 kts | 303° |
| 2026-05-05 23:54 | 44.23282 | -73.05519 | 6641 ft | 205 kts | 303° |
| 2026-05-05 23:54 | 44.24226 | -73.07010 | 6511 ft | 205 kts | 303° |
| 2026-05-05 23:54 | 44.25167 | -73.08504 | 6360 ft | 204 kts | 303° |
| 2026-05-05 23:54 | 44.26100 | -73.09993 | 6249 ft | 203 kts | 303° |
| 2026-05-05 23:55 | 44.27026 | -73.11474 | 6129 ft | 202 kts | 303° |
| 2026-05-05 23:55 | 44.27951 | -73.12951 | 5995 ft | 202 kts | 303° |
| 2026-05-05 23:55 | 44.28876 | -73.14417 | 5876 ft | 201 kts | 303° |
| 2026-05-05 23:55 | 44.29800 | -73.15888 | 5747 ft | 200 kts | 303° |
| 2026-05-05 23:56 | 44.30715 | -73.17351 | 5623 ft | 200 kts | 303° |
| 2026-05-05 23:56 | 44.31617 | -73.18793 | 5492 ft | 199 kts | 303° |
| 2026-05-05 23:56 | 44.32528 | -73.20248 | 5370 ft | 198 kts | 303° |
| 2026-05-05 23:56 | 44.33433 | -73.21697 | 5235 ft | 198 kts | 303° |
| 2026-05-05 23:57 | 44.34338 | -73.23144 | 5113 ft | 197 kts | 304° |
| 2026-05-05 23:57 | 44.35244 | -73.24591 | 4978 ft | 198 kts | 304° |
| 2026-05-05 23:57 | 44.36157 | -73.26049 | 4863 ft | 199 kts | 304° |
| 2026-05-05 23:57 | 44.37019 | -73.27429 | 4748 ft | 200 kts | 304° |
| 2026-05-05 23:58 | 44.37930 | -73.28894 | 4620 ft | 199 kts | 304° |
| 2026-05-05 23:58 | 44.38842 | -73.30358 | 4495 ft | 200 kts | 304° |
| 2026-05-05 23:58 | 44.39756 | -73.31821 | 4365 ft | 200 kts | 304° |
| 2026-05-05 23:58 | 44.40675 | -73.33291 | 4239 ft | 200 kts | 304° |
| 2026-05-05 23:59 | 44.41577 | -73.34735 | 4114 ft | 200 kts | 304° |
| 2026-05-05 23:59 | 44.42489 | -73.36201 | 3989 ft | 199 kts | 304° |
| 2026-05-05 23:59 | 44.43391 | -73.37667 | 3877 ft | 198 kts | 304° |
| 2026-05-05 23:59 | 44.44299 | -73.39125 | 3771 ft | 199 kts | 305° |
| 2026-05-06 00:00 | 44.45210 | -73.40586 | 3651 ft | 200 kts | 305° |
| 2026-05-06 00:00 | 44.46128 | -73.42052 | 3511 ft | 199 kts | 305° |
| 2026-05-06 00:00 | 44.47025 | -73.43500 | 3370 ft | 199 kts | 305° |
| 2026-05-06 00:00 | 44.47931 | -73.44973 | 3233 ft | 200 kts | 306° |
| 2026-05-06 00:01 | 44.48845 | -73.46430 | 3118 ft | 199 kts | 305° |
| 2026-05-06 00:01 | 44.49896 | -73.47702 | 2999 ft | 207 kts | 329° |
| 2026-05-06 00:01 | 44.51351 | -73.47931 | 2878 ft | 220 kts | 6° |
| 2026-05-06 00:01 | 44.52725 | -73.46967 | 2753 ft | 226 kts | 36° |
| 2026-05-06 00:02 | 44.53911 | -73.45512 | 2625 ft | 226 kts | 39° |
| 2026-05-06 00:02 | 44.55097 | -73.44058 | 2508 ft | 227 kts | 38° |
| 2026-05-06 00:02 | 44.56296 | -73.42616 | 2396 ft | 228 kts | 38° |
| 2026-05-06 00:02 | 44.57491 | -73.41164 | 2269 ft | 227 kts | 42° |
| 2026-05-06 00:03 | 44.58276 | -73.39270 | 2133 ft | 227 kts | 77° |
| 2026-05-06 00:03 | 44.58219 | -73.37108 | 2013 ft | 222 kts | 109° |
| 2026-05-06 00:03 | 44.57993 | -73.35008 | 1897 ft | 225 kts | 86° |
| 2026-05-06 00:03 | 44.58219 | -73.32884 | 1996 ft | 215 kts | 87° |
| 2026-05-06 00:04 | 44.57900 | -73.30933 | 2105 ft | 196 kts | 126° |
| 2026-05-06 00:04 | 44.57072 | -73.29609 | 2218 ft | 170 kts | 142° |
| 2026-05-06 00:04 | 44.56220 | -73.28523 | 2329 ft | 162 kts | 145° |
| 2026-05-06 00:04 | 44.55394 | -73.27484 | 2434 ft | 157 kts | 144° |
| 2026-05-06 00:05 | 44.53765 | -73.25636 | 2209 ft | 148 kts | 155° |
| 2026-05-06 00:05 | 44.52974 | -73.24682 | 1888 ft | 155 kts | 133° |
| 2026-05-06 00:05 | 44.52363 | -73.23452 | 1552 ft | 152 kts | 131° |
| 2026-05-06 00:06 | 44.51726 | -73.22293 | 1367 ft | 149 kts | 138° |
| 2026-05-06 00:06 | 44.51008 | -73.21247 | 1203 ft | 149 kts | 139° |
| 2026-05-06 00:06 | 44.50313 | -73.20182 | 1060 ft | 143 kts | 133° |
| 2026-05-06 00:06 | 44.49709 | -73.19182 | 901 ft | 129 kts | 133° |
| 2026-05-06 00:07 | 44.49127 | -73.18293 | 720 ft | 117 kts | 137° |
| 2026-05-06 00:07 | 44.48793 | -73.17739 | 597 ft | 110 kts | 132° |
| 2026-05-06 00:07 | 44.48503 | -73.17231 | 237 ft | 102 kts | 119° |
| 2026-05-06 00:07 | 44.48204 | -73.16924 | 305 ft | 6 kts | 192° |
| 2026-05-06 00:08 | 44.48203 | -73.16925 | 305 ft | 0 kts | 191° |